Time;durP1;ratioP1;P1;durP2;ratioP2;P2;SDS_P1;SDS_P2;PMS_P1;PMS_P2;Temp;Humidity;BMP_temperature;BMP_pressure;BME280_temperature;BME280_humidity;BME280_pressure;Samples;Min_cycle;Max_cycle;Signal;HPM_P1;HPM_P2
2024/01/02 00:00:15;;;;;;;0.20;0.20;;;;;;;14.09;65.28;100171.44;5090647;28;20104;-69
2024/01/02 00:02:40;;;;;;;0.35;0.35;;;;;;;14.05;65.83;100164.94;5090262;28;20042;-69
2024/01/02 00:05:06;;;;;;;0.30;0.30;;;;;;;14.42;64.62;100154.81;5108998;28;20402;-70
2024/01/02 00:07:31;;;;;;;0.20;0.20;;;;;;;14.73;63.23;100148.38;5109556;28;20543;-69
2024/01/02 00:09:56;;;;;;;0.30;0.30;;;;;;;14.32;64.93;100146.66;5109574;28;20031;-69
2024/01/02 00:12:22;;;;;;;0.30;0.30;;;;;;;14.43;64.19;100139.38;5108998;28;20439;-69
2024/01/02 00:14:47;;;;;;;0.43;0.43;;;;;;;14.36;64.09;100130.72;5075170;28;20051;-69
2024/01/02 00:17:13;;;;;;;0.20;0.20;;;;;;;14.39;65.18;100128.28;5088907;28;20451;-68
2024/01/02 00:19:38;;;;;;;0.20;0.20;;;;;;;13.92;66.16;100112.19;5089286;28;20115;-69
2024/01/02 00:22:03;;;;;;;0.40;0.40;;;;;;;14.26;65.42;100103.66;5097037;28;20114;-69
2024/01/02 00:24:29;;;;;;;0.20;0.20;;;;;;;13.98;66.11;100097.63;5096775;28;20028;-69
2024/01/02 00:26:55;;;;;;;0.30;0.30;;;;;;;14.28;65.75;100090.72;5095929;28;20430;-68
2024/01/02 00:29:20;;;;;;;0.40;0.40;;;;;;;14.61;64.32;100087.50;5097282;28;20044;-68
2024/01/02 00:31:46;;;;;;;0.30;0.30;;;;;;;14.29;64.84;100065.31;5097463;28;20501;-69
2024/01/02 00:34:12;;;;;;;0.30;0.30;;;;;;;13.84;67.23;100072.19;5095839;28;20434;-69
2024/01/02 00:36:38;;;;;;;0.13;0.13;;;;;;;14.09;67.24;100056.03;5097766;28;20379;-69
2024/01/02 00:39:03;;;;;;;0.20;0.20;;;;;;;14.36;65.50;100055.03;5099976;28;20088;-68
2024/01/02 00:41:29;;;;;;;0.17;0.17;;;;;;;14.14;66.32;100039.03;5097373;28;20044;-68
2024/01/02 00:43:54;;;;;;;0.30;0.30;;;;;;;14.10;66.49;100024.44;5089102;28;20127;-69
2024/01/02 00:46:19;;;;;;;0.32;0.32;;;;;;;14.42;65.62;100019.66;5088920;28;20484;-69
2024/01/02 00:48:45;;;;;;;0.30;0.30;;;;;;;13.84;67.08;100010.06;5087927;28;20146;-69
2024/01/02 00:51:11;;;;;;;0.20;0.20;;;;;;;14.25;66.42;100008.22;5088937;28;20126;-69
2024/01/02 00:53:37;;;;;;;0.32;0.32;;;;;;;14.61;65.17;99993.69;5088912;28;20123;-69
2024/01/02 00:56:03;;;;;;;0.40;0.40;;;;;;;14.32;65.73;99981.00;5089059;28;20163;-69
2024/01/02 00:58:28;;;;;;;0.47;0.47;;;;;;;13.89;68.26;99971.47;5088954;28;20028;-69
2024/01/02 01:00:54;;;;;;;0.40;0.40;;;;;;;13.72;70.01;99965.50;5096574;28;20118;-69
2024/01/02 01:03:19;;;;;;;0.30;0.30;;;;;;;13.64;69.45;99957.94;5089937;28;20567;-69
2024/01/02 01:05:44;;;;;;;0.40;0.40;;;;;;;13.43;70.56;99946.25;5090375;28;20429;-69
2024/01/02 01:08:11;;;;;;;0.30;0.30;;;;;;;13.70;69.02;99936.06;5109350;28;20181;-69
2024/01/02 01:10:36;;;;;;;0.20;0.20;;;;;;;14.16;67.36;99925.28;5109046;28;20055;-69
2024/01/02 01:13:01;;;;;;;0.32;0.32;;;;;;;14.60;66.00;99919.03;5108891;28;20032;-70
2024/01/02 01:15:27;;;;;;;0.28;0.28;;;;;;;14.17;66.43;99916.91;5109651;28;20503;-69
2024/01/02 01:17:52;;;;;;;0.40;0.40;;;;;;;14.49;65.74;99903.13;5108640;28;20032;-70
2024/01/02 01:20:18;;;;;;;0.20;0.20;;;;;;;14.01;68.44;99899.09;5108872;28;20115;-69
2024/01/02 01:22:43;;;;;;;0.20;0.20;;;;;;;13.97;68.48;99890.69;5108826;28;20047;-70
2024/01/02 01:25:08;;;;;;;0.30;0.30;;;;;;;14.33;67.33;99886.13;5112272;28;20035;-69
2024/01/02 01:27:34;;;;;;;0.30;0.30;;;;;;;14.20;67.41;99872.31;5113204;28;20031;-68
2024/01/02 01:29:59;;;;;;;0.30;0.30;;;;;;;14.28;67.82;99866.41;5094027;28;20050;-69
2024/01/02 01:32:24;;;;;;;0.30;0.30;;;;;;;14.06;68.66;99858.56;5112481;28;20500;-69
2024/01/02 01:34:51;;;;;;;0.35;0.35;;;;;;;13.97;69.39;99849.41;5112518;28;20092;-68
2024/01/02 01:37:16;;;;;;;0.32;0.32;;;;;;;14.20;68.41;99838.00;5112710;28;20274;-69
2024/01/02 01:39:42;;;;;;;0.22;0.22;;;;;;;14.32;67.49;99827.75;5112990;28;20043;-70
2024/01/02 01:42:08;;;;;;;0.40;0.40;;;;;;;13.78;69.95;99826.69;5112297;28;20066;-68
2024/01/02 01:44:33;;;;;;;0.20;0.20;;;;;;;14.47;67.74;99807.97;5112429;28;20437;-70
2024/01/02 01:46:58;;;;;;;0.30;0.30;;;;;;;14.38;68.17;99796.94;5112282;28;20120;-69
2024/01/02 01:49:24;;;;;;;0.20;0.20;;;;;;;13.87;68.68;99785.41;5112071;28;20050;-69
2024/01/02 01:51:51;;;;;;;0.20;0.20;;;;;;;13.95;70.35;99768.63;5112543;28;20032;-69
2024/01/02 01:54:18;;;;;;;0.30;0.30;;;;;;;13.79;69.48;99761.66;5096661;28;20028;-68
2024/01/02 01:56:44;;;;;;;0.40;0.40;;;;;;;14.26;68.51;99757.75;5095623;28;20047;-69
2024/01/02 01:59:11;;;;;;;0.30;0.30;;;;;;;13.93;69.98;99759.19;5112000;28;20097;-69
2024/01/02 02:01:38;;;;;;;0.30;0.30;;;;;;;13.89;70.93;99744.63;5111828;28;20062;-68
2024/01/02 02:04:03;;;;;;;0.20;0.20;;;;;;;14.10;69.73;99740.75;5111659;28;20031;-69
2024/01/02 02:06:29;;;;;;;0.20;0.20;;;;;;;14.38;68.52;99732.06;5112315;28;20038;-69
2024/01/02 02:08:55;;;;;;;0.30;0.30;;;;;;;13.77;71.91;99720.59;5112322;28;20330;-68
2024/01/02 02:11:20;;;;;;;0.30;0.30;;;;;;;14.23;69.14;99715.06;5093574;28;20616;-70
2024/01/02 02:13:47;;;;;;;0.22;0.22;;;;;;;14.30;68.71;99707.50;5111752;28;20043;-69
2024/01/02 02:16:14;;;;;;;0.30;0.30;;;;;;;14.38;68.12;99696.91;5111838;28;20036;-69
2024/01/02 02:18:39;;;;;;;0.28;0.28;;;;;;;14.35;67.99;99697.47;5112255;28;20452;-70
2024/01/02 02:21:05;;;;;;;0.30;0.30;;;;;;;14.10;69.25;99687.56;5111975;28;20051;-68
2024/01/02 02:23:30;;;;;;;0.30;0.30;;;;;;;14.24;69.03;99676.13;5111402;28;20040;-69
2024/01/02 02:25:55;;;;;;;0.20;0.20;;;;;;;14.49;67.98;99659.81;5111595;28;20043;-68
2024/01/02 02:28:21;;;;;;;0.38;0.38;;;;;;;14.47;67.63;99648.47;5111571;28;20506;-69
2024/01/02 02:30:46;;;;;;;0.30;0.30;;;;;;;14.00;69.80;99641.66;5103869;28;20031;-68
2024/01/02 02:33:12;;;;;;;0.30;0.30;;;;;;;14.25;69.99;99634.53;5111132;28;20059;-68
2024/01/02 02:35:37;;;;;;;0.30;0.30;;;;;;;13.87;70.33;99631.47;5110177;28;20047;-70
2024/01/02 02:38:02;;;;;;;0.30;0.30;;;;;;;14.11;69.58;99628.94;5111312;28;20045;-70
2024/01/02 02:40:28;;;;;;;0.30;0.30;;;;;;;13.62;70.35;99599.13;5111345;28;20123;-67
2024/01/02 02:42:53;;;;;;;0.30;0.30;;;;;;;13.93;70.56;99589.03;5111530;28;20033;-69
2024/01/02 02:45:19;;;;;;;0.30;0.30;;;;;;;13.35;72.97;99570.88;5111151;28;20130;-69
2024/01/02 02:47:44;;;;;;;0.30;0.30;;;;;;;13.42;71.44;99574.13;5110939;28;20151;-68
2024/01/02 02:50:10;;;;;;;0.10;0.10;;;;;;;13.39;71.84;99545.78;5111121;28;20097;-68
2024/01/02 02:52:35;;;;;;;0.20;0.20;;;;;;;13.50;71.99;99543.88;5110280;28;20108;-68
2024/01/02 02:55:01;;;;;;;0.28;0.28;;;;;;;13.31;72.03;99530.16;5092328;28;20043;-69
2024/01/02 02:57:26;;;;;;;0.20;0.20;;;;;;;13.85;69.94;99519.41;5111365;28;20054;-69
2024/01/02 02:59:52;;;;;;;0.40;0.40;;;;;;;14.37;68.04;99519.63;5110618;28;20535;-69
2024/01/02 03:02:17;;;;;;;0.20;0.20;;;;;;;13.91;70.49;99508.31;5110595;28;20043;-67
2024/01/02 03:04:43;;;;;;;0.40;0.40;;;;;;;13.93;70.56;99502.63;5110788;28;20092;-68
2024/01/02 03:07:10;;;;;;;0.20;0.20;;;;;;;14.24;69.52;99497.81;5110467;28;20522;-68
2024/01/02 03:09:35;;;;;;;0.20;0.20;;;;;;;13.91;70.14;99483.19;5111202;28;20506;-68
2024/01/02 03:12:01;;;;;;;0.20;0.20;;;;;;;14.18;68.63;99483.53;5095333;28;20105;-68
2024/01/02 03:14:26;;;;;;;0.20;0.20;;;;;;;13.84;70.22;99478.09;5088920;28;20051;-68
2024/01/02 03:16:52;;;;;;;0.50;0.50;;;;;;;14.56;68.39;99460.28;5090417;28;20438;-69
2024/01/02 03:19:18;;;;;;;0.28;0.28;;;;;;;13.76;71.71;99461.66;5090201;28;20093;-69
2024/01/02 03:21:43;;;;;;;0.40;0.40;;;;;;;13.76;70.80;99450.84;5090469;28;20574;-69
2024/01/02 03:24:08;;;;;;;0.20;0.20;;;;;;;13.43;72.26;99438.91;5090006;28;20071;-69
2024/01/02 03:26:34;;;;;;;0.30;0.30;;;;;;;13.59;71.55;99412.63;5090209;28;20036;-69
2024/01/02 03:28:59;;;;;;;0.32;0.32;;;;;;;13.30;73.96;99400.94;5088716;28;20050;-69
2024/01/02 03:31:24;;;;;;;0.20;0.20;;;;;;;13.58;72.01;99398.31;5102157;28;20122;-68
2024/01/02 03:33:51;;;;;;;0.30;0.30;;;;;;;13.62;72.11;99387.81;5110447;28;20039;-68
2024/01/02 03:36:18;;;;;;;0.40;0.40;;;;;;;13.14;73.59;99392.13;5110164;28;20104;-70
2024/01/02 03:38:47;;;;;;;0.20;0.20;;;;;;;13.29;73.38;99375.84;5091953;28;20035;-69
2024/01/02 03:41:12;;;;;;;0.30;0.30;;;;;;;13.58;72.91;99362.47;5110094;28;20039;-68
2024/01/02 03:43:39;;;;;;;0.17;0.17;;;;;;;14.00;71.23;99358.06;5110019;28;20403;-69
2024/01/02 03:46:05;;;;;;;0.32;0.32;;;;;;;13.62;72.27;99350.78;5109604;28;20035;-69
2024/01/02 03:48:30;;;;;;;0.30;0.30;;;;;;;13.49;72.16;99329.03;5092034;28;20046;-69
2024/01/02 03:50:56;;;;;;;0.30;0.30;;;;;;;14.24;70.65;99327.59;5109027;28;20047;-68
2024/01/02 03:53:21;;;;;;;0.30;0.30;;;;;;;13.81;71.69;99318.53;5109965;28;20028;-69
2024/01/02 03:55:47;;;;;;;0.30;0.30;;;;;;;13.54;73.12;99315.53;5110299;28;20164;-69
2024/01/02 03:58:12;;;;;;;0.22;0.22;;;;;;;13.25;73.99;99311.97;5109988;28;20098;-69
2024/01/02 04:00:38;;;;;;;0.30;0.30;;;;;;;14.42;70.20;99294.47;5110194;28;20500;-71
2024/01/02 04:03:03;;;;;;;0.20;0.20;;;;;;;14.01;71.29;99281.34;5109656;28;20067;-68
2024/01/02 04:05:29;;;;;;;0.20;0.20;;;;;;;14.26;69.90;99284.88;5110043;28;20039;-68
2024/01/02 04:07:54;;;;;;;0.40;0.40;;;;;;;13.51;72.08;99276.41;5109806;28;20135;-70
2024/01/02 04:10:20;;;;;;;0.30;0.30;;;;;;;13.74;71.88;99272.97;5109454;28;20104;-70
2024/01/02 04:12:45;;;;;;;0.30;0.30;;;;;;;14.30;69.89;99254.31;5110190;28;20034;-69
2024/01/02 04:15:10;;;;;;;0.30;0.30;;;;;;;13.79;71.95;99226.22;5109447;28;20044;-69
2024/01/02 04:17:36;;;;;;;0.40;0.40;;;;;;;13.49;73.68;99211.09;5109570;28;20050;-68
2024/01/02 04:20:01;;;;;;;0.10;0.10;;;;;;;13.88;71.91;99211.81;5109409;28;20054;-68
2024/01/02 04:22:26;;;;;;;0.30;0.30;;;;;;;13.84;72.09;99209.94;5109441;28;20040;-68
2024/01/02 04:24:52;;;;;;;0.32;0.32;;;;;;;13.88;71.52;99203.69;5109978;28;20130;-69
2024/01/02 04:27:17;;;;;;;0.20;0.20;;;;;;;14.56;69.52;99196.16;5109317;28;20414;-69
2024/01/02 04:29:42;;;;;;;0.32;0.32;;;;;;;14.26;71.25;99193.00;5103552;28;20134;-70
2024/01/02 04:32:08;;;;;;;0.43;0.43;;;;;;;13.61;73.37;99187.25;5088943;28;20032;-68
2024/01/02 04:34:33;;;;;;;0.20;0.20;;;;;;;14.09;71.77;99183.47;5089014;28;20547;-68
2024/01/02 04:36:59;;;;;;;0.30;0.30;;;;;;;13.82;73.31;99179.72;5089248;28;20449;-69
2024/01/02 04:39:24;;;;;;;0.20;0.20;;;;;;;14.22;70.80;99183.88;5089523;28;20039;-68
2024/01/02 04:41:50;;;;;;;0.43;0.43;;;;;;;13.54;73.38;99164.41;5088791;28;20131;-67
2024/01/02 04:44:15;;;;;;;0.30;0.30;;;;;;;14.11;72.38;99167.78;5088886;28;20669;-69
2024/01/02 04:46:41;;;;;;;0.30;0.30;;;;;;;14.13;71.51;99168.28;5102944;28;20097;-68
2024/01/02 04:49:06;;;;;;;0.30;0.30;;;;;;;13.83;72.30;99160.56;5105693;28;20028;-69
2024/01/02 04:51:32;;;;;;;0.20;0.20;;;;;;;14.66;69.70;99160.84;5089585;28;20032;-68
2024/01/02 04:53:57;;;;;;;0.38;0.38;;;;;;;14.61;70.35;99133.09;5088937;28;20032;-68
2024/01/02 04:56:23;;;;;;;0.30;0.30;;;;;;;13.86;73.51;99142.97;5088819;28;20044;-68
2024/01/02 04:58:48;;;;;;;0.30;0.30;;;;;;;13.10;76.70;99134.84;5088654;28;20036;-68
2024/01/02 05:01:14;;;;;;;0.20;0.20;;;;;;;14.10;73.16;99141.06;5094458;28;20074;-68
2024/01/02 05:03:39;;;;;;;0.40;0.40;;;;;;;13.56;74.89;99130.59;5112662;28;20039;-68
2024/01/02 05:06:05;;;;;;;0.20;0.20;;;;;;;13.44;75.31;99116.72;5112580;28;20042;-69
2024/01/02 05:08:30;;;;;;;0.20;0.20;;;;;;;14.05;74.02;99116.84;5094200;28;20097;-69
2024/01/02 05:10:55;;;;;;;0.30;0.30;;;;;;;13.95;73.08;99109.63;5112443;28;20027;-69
2024/01/02 05:13:21;;;;;;;0.30;0.30;;;;;;;13.81;74.93;99110.63;5112227;28;20047;-69
2024/01/02 05:15:46;;;;;;;0.30;0.30;;;;;;;14.07;74.20;99107.31;5112892;28;20499;-68
2024/01/02 05:18:11;;;;;;;0.38;0.38;;;;;;;14.37;73.25;99100.75;5092467;28;20027;-68
2024/01/02 05:20:37;;;;;;;0.20;0.20;;;;;;;13.77;74.97;99093.41;5093535;28;20044;-68
2024/01/02 05:23:03;;;;;;;0.30;0.30;;;;;;;14.94;71.00;99094.16;5112802;28;20547;-69
2024/01/02 05:25:32;;;;;;;0.40;0.40;;;;;;;14.23;73.25;99080.91;5112886;28;20488;-69
2024/01/02 05:27:57;;;;;;;0.30;0.30;;;;;;;14.61;71.76;99074.44;5112563;28;20031;-69
2024/01/02 05:30:23;;;;;;;0.20;0.20;;;;;;;14.22;73.53;99073.91;5113062;28;20106;-69
2024/01/02 05:32:49;;;;;;;0.40;0.40;;;;;;;14.29;73.15;99068.97;5094048;28;20080;-68
2024/01/02 05:35:14;;;;;;;0.30;0.30;;;;;;;13.89;74.69;99067.63;5112411;28;20035;-70
2024/01/02 05:37:39;;;;;;;0.20;0.20;;;;;;;14.65;71.85;99061.13;5112598;28;20090;-69
2024/01/02 05:40:05;;;;;;;0.32;0.32;;;;;;;14.48;72.33;99053.56;5112624;28;20054;-69
2024/01/02 05:42:31;;;;;;;0.40;0.40;;;;;;;14.29;72.68;99066.25;5112385;28;20036;-69
2024/01/02 05:44:56;;;;;;;0.20;0.20;;;;;;;14.39;72.48;99049.91;5112006;28;20139;-69
2024/01/02 05:47:21;;;;;;;0.20;0.20;;;;;;;14.70;72.18;99056.44;5112162;28;20177;-69
2024/01/02 05:49:47;;;;;;;0.40;0.40;;;;;;;14.68;71.99;99055.91;5111923;28;20092;-69
2024/01/02 05:52:12;;;;;;;0.30;0.30;;;;;;;14.09;74.46;99053.81;5112044;28;20167;-69
2024/01/02 05:54:37;;;;;;;0.10;0.10;;;;;;;14.29;74.62;99046.56;5112619;28;20110;-70
2024/01/02 05:57:03;;;;;;;0.20;0.20;;;;;;;14.40;72.49;99042.59;5112117;28;20154;-71
2024/01/02 05:59:28;;;;;;;0.35;0.35;;;;;;;14.81;72.43;99044.38;5093534;28;20040;-70
2024/01/02 06:01:54;;;;;;;0.40;0.40;;;;;;;14.74;72.92;99046.63;5111594;28;20052;-69
2024/01/02 06:04:19;;;;;;;0.30;0.30;;;;;;;14.31;73.94;99044.38;5111610;28;20142;-69
2024/01/02 06:06:44;;;;;;;0.35;0.35;;;;;;;14.28;74.51;99039.53;5109602;28;20030;-69
2024/01/02 06:09:10;;;;;;;0.20;0.20;;;;;;;14.65;74.29;99040.31;5091696;28;20448;-70
2024/01/02 06:11:35;;;;;;;0.25;0.25;;;;;;;13.76;76.50;99052.09;5091786;28;20119;-69
2024/01/02 06:14:01;;;;;;;0.30;0.30;;;;;;;14.31;75.92;99044.38;5091484;28;20077;-69
2024/01/02 06:16:27;;;;;;;0.20;0.20;;;;;;;14.58;75.08;99044.50;5103169;28;20142;-69
2024/01/02 06:18:52;;;;;;;0.40;0.40;;;;;;;14.33;75.26;99044.88;5111548;28;20080;-69
2024/01/02 06:21:18;;;;;;;0.28;0.28;;;;;;;14.26;77.01;99044.41;5110538;28;20088;-69
2024/01/02 06:23:43;;;;;;;0.30;0.30;;;;;;;14.35;75.67;99053.50;5110237;28;20097;-69
2024/01/02 06:26:08;;;;;;;0.50;0.50;;;;;;;14.64;74.85;99054.13;5110995;28;20096;-70
2024/01/02 06:28:34;;;;;;;0.20;0.20;;;;;;;14.89;73.70;99040.97;5111091;28;20554;-70
2024/01/02 06:31:05;;;;;;;0.38;0.38;;;;;;;15.35;72.25;99035.53;5111141;28;20096;-70
2024/01/02 06:33:31;;;;;;;0.10;0.10;;;;;;;15.03;73.49;99051.03;5110965;28;20027;-69
2024/01/02 06:35:56;;;;;;;0.22;0.22;;;;;;;14.83;75.51;99061.09;5111591;28;20487;-69
2024/01/02 06:38:21;;;;;;;0.20;0.20;;;;;;;14.84;75.44;99068.09;5111256;28;20088;-69
2024/01/02 06:40:47;;;;;;;0.30;0.30;;;;;;;14.88;75.20;99073.72;5106874;28;20075;-69
2024/01/02 06:43:12;;;;;;;0.30;0.30;;;;;;;15.02;74.15;99071.06;5111131;28;20110;-70
2024/01/02 06:45:37;;;;;;;0.40;0.40;;;;;;;15.21;73.72;99069.09;5106410;28;20320;-70
2024/01/02 06:48:03;;;;;;;0.30;0.30;;;;;;;14.89;75.77;99061.81;5110703;28;20062;-69
2024/01/02 06:50:28;;;;;;;0.30;0.30;;;;;;;14.88;76.47;99068.31;5110823;28;20036;-69
2024/01/02 06:52:54;;;;;;;0.10;0.10;;;;;;;14.84;77.25;99068.09;5111058;28;20039;-69
2024/01/02 06:55:19;;;;;;;0.10;0.10;;;;;;;14.63;80.04;99077.66;5111116;28;20095;-70
2024/01/02 06:57:44;;;;;;;0.20;0.20;;;;;;;14.78;80.60;99082.81;5111186;28;20121;-70
2024/01/02 07:00:10;;;;;;;0.20;0.20;;;;;;;14.77;80.60;99078.50;5110056;28;20056;-70
2024/01/02 07:02:36;;;;;;;0.20;0.20;;;;;;;14.72;82.63;99097.50;5110706;28;20564;-71
2024/01/02 07:05:01;;;;;;;0.30;0.30;;;;;;;14.81;82.00;99109.28;5110733;28;20059;-71
2024/01/02 07:07:27;;;;;;;0.25;0.25;;;;;;;14.92;82.05;99104.47;5102338;28;20032;-72
2024/01/02 07:09:52;;;;;;;0.20;0.20;;;;;;;14.86;84.59;99111.88;5071798;28;20404;-71
2024/01/02 07:12:18;;;;;;;0.30;0.30;;;;;;;14.94;83.53;99107.69;5090076;28;20031;-73
2024/01/02 07:14:43;;;;;;;0.30;0.30;;;;;;;14.53;85.27;99107.53;5090230;28;20043;-71
2024/01/02 07:17:09;;;;;;;0.30;0.30;;;;;;;14.91;84.02;99102.88;5108379;28;20047;-71
2024/01/02 07:19:34;;;;;;;0.30;0.30;;;;;;;15.18;82.29;99102.16;5111232;28;20118;-76
2024/01/02 07:22:00;;;;;;;0.40;0.40;;;;;;;15.44;81.71;99114.16;5111941;28;20054;-77
2024/01/02 07:24:25;;;;;;;0.28;0.28;;;;;;;15.40;83.09;99116.66;5112342;28;20038;-71
2024/01/02 07:26:50;;;;;;;0.30;0.30;;;;;;;15.46;82.67;99114.66;5110209;28;20504;-70
2024/01/02 07:29:16;;;;;;;0.40;0.40;;;;;;;15.66;81.10;99120.50;5110485;28;20126;-73
2024/01/02 07:31:42;;;;;;;0.20;0.20;;;;;;;15.46;82.35;99120.91;5095382;28;20044;-70
2024/01/02 07:34:07;;;;;;;0.20;0.20;;;;;;;15.59;81.92;99124.72;5092762;28;20024;-70
2024/01/02 07:36:33;;;;;;;0.20;0.20;;;;;;;16.12;79.24;99133.94;5110578;28;20494;-70
2024/01/02 07:38:58;;;;;;;0.20;0.20;;;;;;;15.19;83.21;99136.25;5110314;28;20411;-71
2024/01/02 07:41:23;;;;;;;0.30;0.30;;;;;;;15.59;82.36;99146.38;5109629;28;20138;-71
2024/01/02 07:43:49;;;;;;;0.25;0.25;;;;;;;15.59;82.47;99149.88;5110086;28;20051;-71
2024/01/02 07:46:16;;;;;;;0.20;0.20;;;;;;;15.49;83.01;99154.66;5098998;28;20443;-72
2024/01/02 07:48:41;;;;;;;0.30;0.30;;;;;;;15.59;82.83;99146.38;5089872;28;20059;-71
2024/01/02 07:51:07;;;;;;;0.13;0.13;;;;;;;15.89;81.42;99164.75;5089267;28;20506;-70
2024/01/02 07:53:32;;;;;;;0.22;0.22;;;;;;;15.89;80.85;99167.47;5089385;28;20032;-71
2024/01/02 07:55:58;;;;;;;0.20;0.20;;;;;;;16.59;77.32;99157.88;5076002;28;20040;-71
2024/01/02 07:58:23;;;;;;;0.30;0.30;;;;;;;16.43;78.73;99172.06;5090591;28;20031;-72
2024/01/02 08:00:48;;;;;;;0.10;0.10;;;;;;;16.20;80.01;99167.66;5109444;28;20051;-71
2024/01/02 08:03:14;;;;;;;0.30;0.30;;;;;;;16.31;80.02;99180.69;5109002;28;20395;-71
2024/01/02 08:05:40;;;;;;;0.20;0.20;;;;;;;16.56;77.88;99180.19;5109718;28;20039;-73
2024/01/02 08:08:06;;;;;;;0.20;0.20;;;;;;;16.27;79.86;99177.00;5095919;28;20036;-73
2024/01/02 08:10:32;;;;;;;0.20;0.20;;;;;;;16.10;79.70;99190.34;5089249;28;20315;-73
2024/01/02 08:12:58;;;;;;;0.20;0.20;;;;;;;16.01;80.28;99188.66;5089129;28;20024;-73
2024/01/02 08:15:24;;;;;;;0.20;0.20;;;;;;;15.88;80.49;99197.56;5089490;28;20031;-72
2024/01/02 08:17:50;;;;;;;0.20;0.20;;;;;;;16.48;80.07;99204.47;5089235;28;20032;-72
2024/01/02 08:20:15;;;;;;;0.20;0.20;;;;;;;16.13;79.93;99208.72;5089013;28;20028;-72
2024/01/02 08:22:41;;;;;;;0.20;0.20;;;;;;;16.19;80.47;99202.09;5089197;28;20086;-71
2024/01/02 08:25:08;;;;;;;0.20;0.20;;;;;;;16.51;78.01;99207.41;5088876;28;20077;-71
2024/01/02 08:27:35;;;;;;;0.20;0.20;;;;;;;16.85;76.70;99204.22;5089941;28;20032;-71
2024/01/02 08:30:01;;;;;;;0.20;0.20;;;;;;;16.08;79.46;99202.63;5089594;28;20185;-71
2024/01/02 08:32:28;;;;;;;0.20;0.20;;;;;;;16.63;78.06;99213.13;5109205;28;20032;-72
2024/01/02 08:34:54;;;;;;;0.10;0.10;;;;;;;16.18;79.56;99207.81;5112706;28;20051;-72
2024/01/02 08:37:19;;;;;;;0.30;0.30;;;;;;;17.05;75.30;99194.81;5113389;28;20071;-74
2024/01/02 08:39:44;;;;;;;0.10;0.10;;;;;;;16.26;79.44;99204.41;5113937;28;20043;-73
2024/01/02 08:42:10;;;;;;;0.20;0.20;;;;;;;17.00;76.27;99203.09;5113379;28;20032;-72
2024/01/02 08:44:35;;;;;;;0.30;0.30;;;;;;;16.99;76.54;99217.75;5099467;28;20036;-71
2024/01/02 08:47:01;;;;;;;0.20;0.20;;;;;;;17.08;76.53;99211.28;5110802;28;20630;-74
2024/01/02 08:49:27;;;;;;;0.20;0.20;;;;;;;16.41;76.95;99209.53;5113387;28;20112;-73
2024/01/02 08:51:53;;;;;;;0.20;0.20;;;;;;;16.32;79.48;99204.00;5095494;28;20482;-73
2024/01/02 08:54:18;;;;;;;0.20;0.20;;;;;;;16.41;78.57;99213.00;5112785;28;20036;-76
2024/01/02 08:56:44;;;;;;;0.20;0.20;;;;;;;17.03;76.97;99197.03;5093973;28;20040;-73
2024/01/02 08:59:09;;;;;;;0.10;0.10;;;;;;;16.47;78.67;99211.03;5113107;28;20376;-73
2024/01/02 09:01:35;;;;;;;0.20;0.20;;;;;;;17.45;75.06;99202.00;5112433;28;20039;-76
2024/01/02 09:04:01;;;;;;;0.25;0.25;;;;;;;16.97;77.16;99204.50;5113602;28;20027;-75
2024/01/02 09:06:27;;;;;;;0.25;0.25;;;;;;;16.58;79.05;99210.53;5095544;28;20040;-76
2024/01/02 09:08:52;;;;;;;0.10;0.10;;;;;;;16.93;78.31;99208.94;5113375;28;20046;-74
2024/01/02 09:11:19;;;;;;;0.15;0.15;;;;;;;16.89;76.82;99210.66;5113756;28;20039;-75
2024/01/02 09:13:44;;;;;;;0.20;0.20;;;;;;;17.11;75.45;99207.16;5113420;28;20035;-76
2024/01/02 09:16:09;;;;;;;0.17;0.17;;;;;;;16.61;78.87;99217.25;5103385;28;20043;-70
2024/01/02 09:18:35;;;;;;;0.20;0.20;;;;;;;16.86;77.65;99221.31;5092905;28;20039;-70
2024/01/02 09:21:00;;;;;;;0.20;0.20;;;;;;;16.63;78.51;99221.25;5092251;28;20089;-70
2024/01/02 09:23:25;;;;;;;0.10;0.10;;;;;;;17.12;76.24;99216.94;5110399;28;20047;-70
2024/01/02 09:25:57;;;;;;;0.20;0.20;;;;;;;17.03;76.18;99214.13;5112346;28;20503;-68
2024/01/02 09:28:22;;;;;;;0.30;0.30;;;;;;;16.75;77.13;99209.88;5112489;28;20496;-69
2024/01/02 09:30:48;;;;;;;0.30;0.30;;;;;;;16.81;77.66;99208.66;5112905;28;20031;-68
2024/01/02 09:33:14;;;;;;;0.10;0.10;;;;;;;16.56;78.56;99207.31;5104688;28;20027;-70
2024/01/02 09:35:41;;;;;;;0.20;0.20;;;;;;;17.04;76.38;99212.22;5107426;28;20083;-70
2024/01/02 09:38:07;;;;;;;0.20;0.20;;;;;;;16.72;77.36;99215.94;5112173;28;20043;-69
2024/01/02 09:41:01;;;;;;;0.30;0.30;;;;;;;17.44;74.69;99200.38;5112277;28;20156;-70
2024/01/02 09:43:51;;;;;;;0.20;0.20;;;;;;;17.54;75.29;99198.25;5112072;28;20122;-70
2024/01/02 09:46:54;;;;;;;0.20;0.20;;;;;;;17.29;73.96;99209.72;5111923;28;20031;-68
2024/01/02 09:49:19;;;;;;;0.20;0.20;;;;;;;17.27;74.34;99217.38;5112237;28;20036;-70
2024/01/02 09:52:09;;;;;;;0.17;0.17;;;;;;;16.86;77.10;99227.56;5112719;28;20193;-69
2024/01/02 09:54:54;;;;;;;0.20;0.20;;;;;;;16.56;78.19;99218.16;5112413;28;20041;-69
2024/01/02 09:57:38;;;;;;;0.20;0.20;;;;;;;17.06;75.79;99213.50;5112091;28;20032;-69
2024/01/02 10:00:27;;;;;;;0.15;0.15;;;;;;;16.89;77.33;99209.84;5111863;28;20043;-69
2024/01/02 10:03:30;;;;;;;0.20;0.20;;;;;;;17.11;76.07;99237.84;5111562;28;20520;-69
2024/01/02 10:06:18;;;;;;;0.20;0.20;;;;;;;17.41;74.88;99212.66;5111793;28;20039;-68
2024/01/02 10:08:48;;;;;;;0.20;0.20;;;;;;;17.13;75.33;99224.75;5092690;28;20064;-67
2024/01/02 10:11:21;;;;;;;0.20;0.20;;;;;;;17.07;75.63;99228.69;5091420;28;20135;-69
2024/01/02 10:14:06;;;;;;;0.20;0.20;;;;;;;17.51;74.47;99219.81;5092064;28;20036;-68
2024/01/02 10:16:46;;;;;;;0.10;0.10;;;;;;;17.30;74.83;99215.94;5091389;28;20040;-69
2024/01/02 10:19:49;;;;;;;0.13;0.13;;;;;;;18.02;72.56;99220.09;5091366;28;20392;-69
2024/01/02 10:22:46;;;;;;;0.20;0.20;;;;;;;18.30;70.86;99218.72;5091125;28;20012;-67
2024/01/02 10:25:16;;;;;;;0.30;0.30;;;;;;;17.78;72.67;99218.81;5091093;28;20044;-69
2024/01/02 10:28:08;;;;;;;0.10;0.10;;;;;;;17.71;73.42;99219.25;5091681;28;20027;-68
2024/01/02 10:30:40;;;;;;;0.17;0.17;;;;;;;17.67;74.17;99221.00;5096486;28;20042;-69
2024/01/02 10:33:25;;;;;;;0.20;0.20;;;;;;;17.98;71.74;99219.09;5111318;28;20036;-69
2024/01/02 10:36:00;;;;;;;0.20;0.20;;;;;;;18.29;70.94;99217.16;5111321;28;20088;-69
2024/01/02 10:38:52;;;;;;;0.22;0.22;;;;;;;17.99;71.98;99209.81;5092720;28;20059;-69
2024/01/02 10:41:50;;;;;;;0.20;0.20;;;;;;;18.47;70.18;99206.34;5007947;28;20101;-69
2024/01/02 10:44:29;;;;;;;0.30;0.30;;;;;;;18.95;67.71;99193.44;5008183;28;20053;-69
2024/01/02 10:47:05;;;;;;;0.15;0.15;;;;;;;18.45;68.32;99194.97;4992537;28;20057;-69
2024/01/02 10:49:33;;;;;;;0.20;0.20;;;;;;;18.32;70.11;99199.38;5007953;28;20042;-68
2024/01/02 10:52:03;;;;;;;0.20;0.20;;;;;;;18.66;69.14;99195.97;5007922;28;20049;-68
2024/01/02 10:55:02;;;;;;;0.20;0.20;;;;;;;18.42;70.32;99197.22;5008345;28;20060;-68
2024/01/02 10:57:43;;;;;;;0.20;0.20;;;;;;;18.54;69.84;99196.59;5007206;28;20042;-68
2024/01/02 11:00:20;;;;;;;0.40;0.40;;;;;;;18.30;70.08;99188.81;5007385;28;20045;-68
2024/01/02 11:02:57;;;;;;;0.20;0.20;;;;;;;18.70;68.05;99188.78;5006993;28;20061;-68
2024/01/02 11:05:43;;;;;;;0.20;0.20;;;;;;;18.25;70.90;99188.97;4990795;28;20080;-68
2024/01/02 11:08:17;;;;;;;0.10;0.10;;;;;;;17.97;71.02;99174.00;5004635;28;20040;-69
2024/01/02 11:11:00;;;;;;;0.20;0.20;;;;;;;17.98;71.84;99169.38;5007517;28;20049;-68
2024/01/02 11:13:27;;;;;;;0.20;0.20;;;;;;;17.93;70.74;99169.50;5007040;28;20096;-68
2024/01/02 11:16:06;;;;;;;0.20;0.20;;;;;;;17.95;71.63;99159.91;5005175;28;20022;-68
2024/01/02 11:18:34;;;;;;;0.40;0.40;;;;;;;17.92;71.04;99159.75;5061561;28;20031;-68
2024/01/02 11:21:38;;;;;;;0.20;0.20;;;;;;;18.26;69.67;99151.69;5091035;28;20126;-69
2024/01/02 11:24:06;;;;;;;0.22;0.22;;;;;;;17.80;71.80;99149.47;5107510;28;20506;-68
2024/01/02 11:26:34;;;;;;;0.30;0.30;;;;;;;18.12;70.59;99148.31;5110006;28;20035;-68
2024/01/02 11:29:03;;;;;;;0.30;0.30;;;;;;;17.94;71.01;99142.03;5091982;28;20066;-69
2024/01/02 11:31:32;;;;;;;0.28;0.28;;;;;;;18.36;70.04;99144.03;5109935;28;20495;-69
2024/01/02 11:34:34;;;;;;;0.20;0.20;;;;;;;18.03;70.49;99136.59;5110110;28;20012;-69